createdAt,value
2019-05-14T00:01:51.541Z,99.90
2019-05-14T00:04:22.042Z,99.90
2019-05-14T00:06:52.017Z,99.90
2019-05-14T00:09:21.599Z,99.90
2019-05-14T00:11:51.504Z,99.90
2019-05-14T00:14:22.113Z,99.90
2019-05-14T00:16:52.368Z,99.90
2019-05-14T00:19:22.077Z,99.90
2019-05-14T00:21:51.532Z,99.90
2019-05-14T00:24:21.725Z,99.90
2019-05-14T00:26:51.700Z,99.90
2019-05-14T00:29:21.970Z,99.90
2019-05-14T00:31:52.048Z,99.90
2019-05-14T00:34:21.569Z,99.90
2019-05-14T00:36:52.455Z,99.90
2019-05-14T00:39:22.072Z,99.90
2019-05-14T00:41:51.532Z,99.90
2019-05-14T00:44:21.527Z,99.90
2019-05-14T00:46:51.637Z,99.90
2019-05-14T00:49:21.336Z,99.90
2019-05-14T00:51:51.937Z,99.90
2019-05-14T00:54:21.670Z,99.90
2019-05-14T00:56:52.210Z,99.90
2019-05-14T00:59:22.038Z,99.90
2019-05-14T01:01:51.745Z,99.90
2019-05-14T01:04:22.279Z,99.90
2019-05-14T01:06:51.936Z,99.90
2019-05-14T01:09:21.821Z,99.90
2019-05-14T01:11:51.462Z,99.90
2019-05-14T01:14:21.210Z,99.90
2019-05-14T01:16:51.484Z,99.90
2019-05-14T01:22:26.608Z,99.90
2019-05-14T01:24:56.018Z,99.90
2019-05-14T01:30:31.985Z,99.90
2019-05-14T01:33:02.035Z,99.90
2019-05-14T01:35:31.759Z,99.90
2019-05-14T01:38:02.900Z,99.90
2019-05-14T01:40:32.401Z,99.90
2019-05-14T01:46:02.026Z,99.90
2019-05-14T01:48:31.855Z,99.90
2019-05-14T01:51:01.690Z,99.90
2019-05-14T01:53:31.398Z,99.90
2019-05-14T01:56:02.105Z,99.90
2019-05-14T01:58:31.490Z,99.90
2019-05-14T02:01:02.058Z,99.90
2019-05-14T02:03:32.303Z,99.90
2019-05-14T02:06:01.929Z,99.90
2019-05-14T02:08:32.299Z,99.90
2019-05-14T02:11:02.124Z,99.90
2019-05-14T02:13:32.202Z,99.90
2019-05-14T02:16:02.413Z,99.90
2019-05-14T02:18:32.188Z,99.90
2019-05-14T02:21:01.886Z,99.90
2019-05-14T02:23:32.036Z,99.90
2019-05-14T02:26:02.531Z,99.90
2019-05-14T02:28:32.448Z,99.90
2019-05-14T02:31:03.408Z,99.90
2019-05-14T02:33:33.002Z,99.90
2019-05-14T02:36:02.448Z,99.90
2019-05-14T02:38:31.959Z,99.90
2019-05-14T02:41:01.467Z,99.90
2019-05-14T02:43:30.899Z,99.90
2019-05-14T02:46:10.779Z,99.90
2019-05-14T02:48:31.445Z,99.90
2019-05-14T02:51:00.872Z,99.90
2019-05-14T02:53:30.327Z,99.90
2019-05-14T02:55:59.889Z,99.90
2019-05-14T02:58:30.119Z,99.90
2019-05-14T03:01:00.399Z,99.90
2019-05-14T03:03:30.284Z,99.90
2019-05-14T03:06:00.571Z,99.90
2019-05-14T03:08:30.716Z,99.90
2019-05-14T03:11:00.711Z,99.90
2019-05-14T03:16:40.025Z,99.90
2019-05-14T03:19:09.980Z,99.90
2019-05-14T03:21:39.537Z,99.90
2019-05-14T03:24:09.755Z,99.90
2019-05-14T03:26:39.942Z,99.90
2019-05-14T03:29:10.113Z,99.90
2019-05-14T03:31:42.933Z,99.90
2019-05-14T03:34:13.374Z,99.90
2019-05-14T03:36:43.605Z,99.90
2019-05-14T03:39:13.062Z,99.90
2019-05-14T03:41:42.517Z,99.90
2019-05-14T03:44:11.947Z,99.90
2019-05-14T03:46:51.222Z,99.90
2019-05-14T03:49:13.989Z,99.90
2019-05-14T03:51:43.436Z,99.90
2019-05-14T03:54:13.172Z,99.90
2019-05-14T03:56:42.750Z,99.90
2019-05-14T03:59:12.257Z,99.90
2019-05-14T04:01:41.913Z,99.90
2019-05-14T04:04:11.482Z,99.90
2019-05-14T04:06:43.112Z,99.90
2019-05-14T04:09:15.214Z,99.90
2019-05-14T04:11:50.161Z,99.90
2019-05-14T04:14:20.791Z,99.90
2019-05-14T04:17:05.309Z,99.90
2019-05-14T04:19:24.721Z,99.90
2019-05-14T04:21:55.714Z,99.90
2019-05-14T04:24:29.521Z,99.90
2019-05-14T04:27:07.501Z,99.90
2019-05-14T04:29:33.972Z,99.90
2019-05-14T04:32:04.625Z,99.90
2019-05-14T04:34:34.556Z,99.90
2019-05-14T04:37:04.021Z,99.90
2019-05-14T04:39:33.507Z,99.90
2019-05-14T04:42:02.992Z,99.90
2019-05-14T04:44:32.440Z,99.90
2019-05-14T04:47:20.209Z,99.90
2019-05-14T04:49:32.906Z,99.90
2019-05-14T04:52:02.394Z,99.90
2019-05-14T04:54:31.842Z,99.90
2019-05-14T04:57:01.313Z,99.90
2019-05-14T04:59:31.493Z,99.90
2019-05-14T05:02:00.891Z,99.90
2019-05-14T05:04:30.449Z,99.90
2019-05-14T05:06:59.944Z,99.90
2019-05-14T05:09:29.681Z,99.90
2019-05-14T05:11:59.969Z,99.90
2019-05-14T05:14:29.814Z,99.90
2019-05-14T05:16:59.740Z,99.90
2019-05-14T05:19:29.410Z,99.90
2019-05-14T05:21:58.918Z,99.90
2019-05-14T05:24:28.831Z,99.90
2019-05-14T05:26:58.731Z,99.90
2019-05-14T05:29:28.722Z,99.90
2019-05-14T05:31:59.315Z,99.90
2019-05-14T05:34:29.034Z,99.90
2019-05-14T05:36:59.477Z,99.90
2019-05-14T05:39:29.562Z,99.90
2019-05-14T05:41:59.064Z,99.90
2019-05-14T05:44:28.874Z,99.90
2019-05-14T05:46:59.658Z,99.90
2019-05-14T05:49:29.399Z,99.90
2019-05-14T05:51:59.306Z,99.90
2019-05-14T05:54:29.260Z,99.90
2019-05-14T05:56:59.016Z,99.90
2019-05-14T05:59:29.303Z,99.90
2019-05-14T06:01:59.048Z,99.90
2019-05-14T06:04:29.051Z,99.90
2019-05-14T06:07:02.226Z,99.90
2019-05-14T06:09:30.561Z,99.90
2019-05-14T06:12:00.114Z,99.90
2019-05-14T06:14:29.615Z,99.90
2019-05-14T06:16:59.289Z,99.90
2019-05-14T06:19:29.170Z,99.90
2019-05-14T06:21:59.733Z,99.90
2019-05-14T06:24:29.297Z,99.90
2019-05-14T06:26:59.973Z,99.90
2019-05-14T06:29:29.428Z,99.90
2019-05-14T06:31:59.108Z,99.90
2019-05-14T06:34:29.171Z,99.90
2019-05-14T06:36:59.308Z,99.90
2019-05-14T06:39:28.978Z,99.90
2019-05-14T06:41:58.728Z,99.90
2019-05-14T06:44:29.409Z,99.90
2019-05-14T06:46:59.192Z,99.90
2019-05-14T06:49:31.969Z,99.90
2019-05-14T06:52:01.403Z,99.90
2019-05-14T06:54:30.852Z,99.90
2019-05-14T06:57:00.289Z,99.90
2019-05-14T06:59:30.537Z,99.90
2019-05-14T07:01:59.979Z,99.90
2019-05-14T07:04:29.489Z,99.90
2019-05-14T07:06:59.252Z,99.90
2019-05-14T07:09:29.060Z,99.90
2019-05-14T07:11:58.702Z,99.90
2019-05-14T07:14:28.364Z,99.90
2019-05-14T07:16:58.786Z,99.90
2019-05-14T07:19:29.487Z,99.90
2019-05-14T07:21:59.257Z,99.90
2019-05-14T07:24:28.678Z,99.90
2019-05-14T07:26:58.721Z,99.90
2019-05-14T07:29:29.275Z,99.90
2019-05-14T07:31:59.072Z,99.90
2019-05-14T07:34:28.487Z,99.90
2019-05-14T07:36:58.740Z,99.90
2019-05-14T07:39:29.094Z,99.90
2019-05-14T07:42:00.791Z,99.90
2019-05-14T07:44:30.207Z,99.90
2019-05-14T07:46:59.775Z,99.90
2019-05-14T07:49:30.653Z,99.90
2019-05-14T07:52:00.100Z,99.90
2019-05-14T07:54:29.491Z,99.90
2019-05-14T07:56:59.180Z,99.90
2019-05-14T07:59:28.894Z,99.90
2019-05-14T08:01:58.748Z,99.90
2019-05-14T08:04:28.935Z,99.90
2019-05-14T08:06:58.602Z,99.90
2019-05-14T08:09:28.396Z,99.90
2019-05-14T08:11:58.769Z,99.90
2019-05-14T08:14:29.405Z,99.90
2019-05-14T08:16:59.722Z,99.90
2019-05-14T08:19:31.398Z,99.90
2019-05-14T08:22:00.188Z,99.90
2019-05-14T08:24:30.208Z,99.90
2019-05-14T08:26:59.713Z,99.90
2019-05-14T08:29:29.173Z,99.90
2019-05-14T08:31:58.605Z,99.90
2019-05-14T08:34:30.350Z,99.90
2019-05-14T08:36:59.034Z,99.90
2019-05-14T08:39:28.725Z,99.90
2019-05-14T08:42:03.064Z,99.90
2019-05-14T08:47:25.139Z,99.90
2019-05-14T08:49:54.568Z,99.90
2019-05-14T08:52:24.016Z,99.90
2019-05-14T08:55:05.325Z,99.90
2019-05-14T08:57:24.607Z,99.90
2019-05-14T08:59:54.054Z,99.90
2019-05-14T09:02:23.503Z,99.90
2019-05-14T09:04:54.832Z,99.90
2019-05-14T09:07:24.016Z,99.90
2019-05-14T09:09:53.454Z,99.90
2019-05-14T09:12:22.923Z,99.90
2019-05-14T09:14:52.325Z,99.90
2019-05-14T09:17:21.770Z,99.90
2019-05-14T09:20:02.371Z,99.90
2019-05-14T09:22:22.237Z,99.90
2019-05-14T09:24:51.681Z,99.90
2019-05-14T09:27:21.117Z,99.90
2019-05-14T09:29:50.568Z,99.90
2019-05-14T09:32:20.011Z,99.90
2019-05-14T09:34:49.435Z,99.90
2019-05-14T09:37:19.557Z,99.90
2019-05-14T09:39:49.006Z,99.90
2019-05-14T09:42:19.540Z,99.90
2019-05-14T09:44:49.318Z,99.90
2019-05-14T09:47:19.109Z,99.90
2019-05-14T09:49:49.065Z,99.90
2019-05-14T09:52:18.883Z,99.90
2019-05-14T09:54:49.614Z,99.90
2019-05-14T09:57:19.195Z,99.90
2019-05-14T09:59:48.583Z,99.90
2019-05-14T10:02:18.467Z,99.90
2019-05-14T10:04:49.074Z,99.90
2019-05-14T10:07:18.616Z,99.90
2019-05-14T10:09:49.252Z,99.90
2019-05-14T10:12:18.730Z,99.90
2019-05-14T10:14:48.747Z,99.90
2019-05-14T10:17:19.327Z,99.90
2019-05-14T10:19:49.725Z,99.90
2019-05-14T10:22:19.960Z,99.90
2019-05-14T10:24:49.517Z,99.90
2019-05-14T10:27:19.065Z,99.90
2019-05-14T10:29:48.462Z,99.90
2019-05-14T10:32:18.650Z,99.90
2019-05-14T10:34:48.631Z,99.90
2019-05-14T10:37:19.176Z,99.90
2019-05-14T10:39:48.912Z,99.90
2019-05-14T10:42:20.108Z,99.90
2019-05-14T10:44:49.417Z,99.90
2019-05-14T10:47:18.977Z,99.90
2019-05-14T10:49:48.504Z,99.90
2019-05-14T10:52:19.780Z,99.90
2019-05-14T10:54:55.898Z,99.90
2019-05-14T10:57:20.157Z,99.90
2019-05-14T10:59:49.646Z,99.90
2019-05-14T11:02:19.161Z,99.90
2019-05-14T11:04:48.671Z,99.90
2019-05-14T11:07:18.689Z,99.90
2019-05-14T11:09:48.610Z,99.50
2019-05-14T11:12:19.297Z,99.80
2019-05-14T11:14:49.550Z,98.10
2019-05-14T11:17:19.593Z,98.60
2019-05-14T11:19:50.341Z,98.70
2019-05-14T11:22:19.780Z,99.50
2019-05-14T11:24:49.366Z,99.30
2019-05-14T11:27:18.886Z,97.80
2019-05-14T11:29:49.162Z,98.70
2019-05-14T11:32:21.832Z,98.10
2019-05-14T11:34:52.861Z,96.50
2019-05-14T11:37:22.283Z,96.00
2019-05-14T11:39:51.789Z,96.50
2019-05-14T11:42:21.308Z,97.30
2019-05-14T11:44:50.806Z,97.60
2019-05-14T11:47:20.266Z,96.90
2019-05-14T11:49:49.746Z,97.10
2019-05-14T11:52:19.366Z,97.90
2019-05-14T11:54:49.511Z,96.50
2019-05-14T11:57:19.485Z,96.50
2019-05-14T11:59:49.336Z,95.20
2019-05-14T12:02:20.586Z,94.90
2019-05-14T12:04:50.217Z,96.60
2019-05-14T12:07:19.756Z,94.20
2019-05-14T12:09:49.581Z,95.10
2019-05-14T12:12:19.199Z,96.00
2019-05-14T12:14:48.819Z,96.30
2019-05-14T12:17:18.279Z,94.90
2019-05-14T12:19:48.467Z,95.90
2019-05-14T12:22:19.010Z,96.50
2019-05-14T12:24:49.717Z,94.80
2019-05-14T12:27:19.431Z,94.00
2019-05-14T12:29:49.800Z,94.40
2019-05-14T12:32:19.776Z,94.10
2019-05-14T12:34:49.314Z,93.10
2019-05-14T12:37:18.869Z,93.50
2019-05-14T12:39:48.313Z,93.10
2019-05-14T12:42:19.337Z,94.50
2019-05-14T12:44:49.190Z,93.00
2019-05-14T12:47:18.981Z,91.70
2019-05-14T12:49:48.938Z,91.20
2019-05-14T12:52:25.474Z,91.20
2019-05-14T12:54:50.095Z,92.10
2019-05-14T12:57:19.922Z,93.30
2019-05-14T12:59:49.764Z,91.50
2019-05-14T13:02:19.335Z,91.90
2019-05-14T13:04:49.216Z,91.70
2019-05-14T13:07:19.233Z,90.40
2019-05-14T13:10:03.571Z,90.10
2019-05-14T13:12:33.049Z,90.40
2019-05-14T13:15:02.561Z,90.80
2019-05-14T13:17:32.037Z,91.60
2019-05-14T13:20:01.658Z,90.60
2019-05-14T13:22:42.534Z,90.50
2019-05-14T13:25:02.085Z,90.40
2019-05-14T13:27:31.521Z,92.40
2019-05-14T13:30:00.970Z,90.70
2019-05-14T13:32:30.400Z,89.10
2019-05-14T13:35:13.890Z,88.20
2019-05-14T13:37:43.422Z,87.50
2019-05-14T13:40:13.958Z,87.00
2019-05-14T13:42:44.613Z,89.20
2019-05-14T13:45:15.253Z,89.60
2019-05-14T13:48:03.730Z,85.80
2019-05-14T13:50:33.167Z,86.10
2019-05-14T13:53:09.368Z,87.40
2019-05-14T13:55:58.471Z,87.10
2019-05-14T13:58:28.598Z,87.30
2019-05-14T14:00:59.230Z,86.90
2019-05-14T14:03:29.375Z,85.40
2019-05-14T14:05:59.595Z,84.20
2019-05-14T14:08:29.423Z,84.90
2019-05-14T14:11:03.015Z,84.80
2019-05-14T14:13:31.364Z,85.00
2019-05-14T14:16:01.160Z,83.50
2019-05-14T14:18:30.496Z,84.50
2019-05-14T14:20:59.922Z,83.60
2019-05-14T14:23:31.318Z,83.40
2019-05-14T14:26:00.513Z,83.50
2019-05-14T14:28:31.572Z,84.80
2019-05-14T14:31:02.717Z,84.60
2019-05-14T14:33:32.193Z,81.50
2019-05-14T14:36:01.651Z,81.40
2019-05-14T14:38:31.097Z,81.50
2019-05-14T14:41:00.557Z,81.70
2019-05-14T14:43:30.072Z,82.60
2019-05-14T14:45:59.584Z,81.90
2019-05-14T14:48:30.194Z,81.70
2019-05-14T14:51:00.035Z,82.00
2019-05-14T14:53:44.971Z,83.50
2019-05-14T14:56:00.692Z,81.00
2019-05-14T14:58:31.647Z,79.60
2019-05-14T15:01:01.494Z,79.00
2019-05-14T15:03:30.984Z,78.50
2019-05-14T15:09:10.371Z,79.50
2019-05-14T15:11:39.888Z,77.60
2019-05-14T15:14:09.330Z,77.10
2019-05-14T15:16:39.724Z,77.50
2019-05-14T15:19:09.570Z,76.80
2019-05-14T15:21:39.141Z,77.20
2019-05-14T15:24:15.175Z,75.30
2019-05-14T15:26:39.696Z,76.50
2019-05-14T15:29:10.016Z,76.70
2019-05-14T15:31:39.496Z,76.20
2019-05-14T15:34:09.196Z,78.30
2019-05-14T15:36:41.439Z,76.30
2019-05-14T15:39:10.591Z,76.70
2019-05-14T15:42:06.390Z,73.70
2019-05-14T15:44:49.017Z,74.80
2019-05-14T15:47:11.237Z,75.40
2019-05-14T15:52:58.762Z,73.50
2019-05-14T15:55:28.909Z,71.20
2019-05-14T15:57:59.416Z,71.40
2019-05-14T16:00:29.285Z,72.70
2019-05-14T16:03:00.215Z,72.10
2019-05-14T16:05:29.808Z,73.80
2019-05-14T16:07:59.595Z,73.80
2019-05-14T16:10:30.860Z,72.40
2019-05-14T16:13:00.048Z,74.10
2019-05-14T16:15:29.470Z,74.10
2019-05-14T16:18:08.060Z,75.40
2019-05-14T16:20:29.970Z,75.50
2019-05-14T16:22:59.385Z,75.30
2019-05-14T16:25:28.837Z,77.10
2019-05-14T16:28:01.732Z,76.60
2019-05-14T16:30:31.228Z,76.40
2019-05-14T16:33:00.750Z,77.60
2019-05-14T16:35:30.322Z,77.00
2019-05-14T16:37:59.784Z,77.60
2019-05-14T16:40:29.229Z,78.50
2019-05-14T16:42:59.192Z,78.50
2019-05-14T16:45:29.050Z,78.60
2019-05-14T16:47:59.358Z,79.70
2019-05-14T16:50:29.074Z,78.90
2019-05-14T16:52:59.095Z,76.60
2019-05-14T16:55:30.603Z,76.80
2019-05-14T16:57:59.864Z,79.30
2019-05-14T17:00:29.605Z,76.80
2019-05-14T17:02:59.475Z,77.80
2019-05-14T17:05:29.935Z,77.50
2019-05-14T17:10:55.451Z,78.20
2019-05-14T17:13:25.328Z,78.50
2019-05-14T17:15:54.871Z,79.00
2019-05-14T17:18:25.629Z,80.80
2019-05-14T17:20:55.226Z,80.20
2019-05-14T17:23:24.722Z,79.40
2019-05-14T17:25:54.220Z,80.40
2019-05-14T17:28:28.424Z,80.70
2019-05-14T17:30:56.998Z,82.30
2019-05-14T17:33:29.140Z,81.90
2019-05-14T17:36:01.088Z,81.00
2019-05-14T17:38:30.631Z,83.80
2019-05-14T17:41:01.246Z,83.20
2019-05-14T17:49:23.667Z,81.00
2019-05-14T17:51:53.217Z,81.40
2019-05-14T17:54:22.758Z,82.50
2019-05-14T17:56:54.118Z,82.70
2019-05-14T17:59:24.107Z,82.80
2019-05-14T18:01:53.730Z,82.40
2019-05-14T18:04:23.283Z,83.40
2019-05-14T18:06:52.766Z,83.80
2019-05-14T18:09:22.659Z,85.70
2019-05-14T18:11:52.532Z,84.90
2019-05-14T18:14:22.032Z,83.60
2019-05-14T18:16:53.139Z,85.80
2019-05-14T18:19:22.569Z,84.60
2019-05-14T18:21:52.069Z,84.80
2019-05-14T18:24:21.732Z,84.10
2019-05-14T18:26:51.578Z,84.90
2019-05-14T18:29:23.075Z,84.50
2019-05-14T18:31:54.542Z,85.60
2019-05-14T18:34:23.767Z,84.90
2019-05-14T18:36:53.320Z,85.10
2019-05-14T18:39:22.841Z,86.60
2019-05-14T18:41:52.336Z,85.90
2019-05-14T18:44:21.908Z,86.40
2019-05-14T18:46:51.476Z,86.60
2019-05-14T18:49:20.950Z,87.10
2019-05-14T18:51:50.469Z,87.30
2019-05-14T18:54:21.463Z,86.70
2019-05-14T18:56:50.968Z,87.50
2019-05-14T18:59:21.233Z,89.40
2019-05-14T19:01:53.651Z,88.10
2019-05-14T19:04:27.854Z,89.20
2019-05-14T19:06:59.061Z,88.80
2019-05-14T19:09:29.206Z,90.10
2019-05-14T19:11:59.313Z,90.90
2019-05-14T19:14:29.419Z,91.10
2019-05-14T19:16:59.572Z,92.30
2019-05-14T19:19:30.127Z,92.80
2019-05-14T19:25:03.231Z,94.40
2019-05-14T19:27:32.651Z,97.60
2019-05-14T19:30:03.254Z,97.90
2019-05-14T19:32:32.852Z,98.50
2019-05-14T19:35:02.397Z,98.20
2019-05-14T19:37:31.888Z,98.70
2019-05-14T19:40:01.344Z,99.00
2019-05-14T19:42:30.831Z,99.60
2019-05-14T19:45:02.553Z,99.90
2019-05-14T19:47:32.014Z,99.90
2019-05-14T19:50:01.426Z,99.90
2019-05-14T19:52:30.871Z,99.90
2019-05-14T19:55:00.357Z,99.90
2019-05-14T20:03:32.879Z,99.90
2019-05-14T20:06:02.259Z,99.90
2019-05-14T20:08:31.674Z,99.90
2019-05-14T20:11:01.131Z,99.90
2019-05-14T20:13:30.590Z,99.90
2019-05-14T20:19:08.699Z,99.90
2019-05-14T20:21:39.228Z,99.90
2019-05-14T20:24:08.720Z,99.90
2019-05-14T20:26:39.159Z,99.90
2019-05-14T20:29:08.986Z,99.90
2019-05-14T20:31:39.111Z,99.90
2019-05-14T20:34:08.884Z,99.90
2019-05-14T20:36:40.636Z,99.90
2019-05-14T20:42:18.350Z,99.90
2019-05-14T20:44:49.182Z,99.90
2019-05-14T20:47:19.067Z,99.90
2019-05-14T20:49:48.736Z,99.90
2019-05-14T20:52:19.469Z,99.90
2019-05-14T20:54:49.000Z,99.90
2019-05-14T20:57:24.393Z,99.90
2019-05-14T20:59:51.231Z,99.90
2019-05-14T21:02:20.691Z,99.90
2019-05-14T21:04:54.356Z,99.90
2019-05-14T21:07:21.297Z,99.90
2019-05-14T21:09:50.928Z,99.90
2019-05-14T21:12:21.297Z,99.90
2019-05-14T21:14:50.792Z,99.90
2019-05-14T21:17:20.263Z,99.90
2019-05-14T21:19:49.747Z,99.90
2019-05-14T21:22:19.367Z,99.90
2019-05-14T21:24:53.276Z,99.90
2019-05-14T21:27:36.682Z,99.90
2019-05-14T21:29:58.389Z,99.90
2019-05-14T21:32:28.327Z,99.90
2019-05-14T21:34:58.492Z,99.90
2019-05-14T21:37:28.435Z,99.90
2019-05-14T21:39:58.287Z,99.90
2019-05-14T21:42:28.584Z,99.90
2019-05-14T21:44:58.498Z,99.90
2019-05-14T21:47:28.534Z,99.90
2019-05-14T21:49:58.383Z,99.90
2019-05-14T21:52:28.991Z,99.90
2019-05-14T21:54:58.871Z,99.90
2019-05-14T21:57:28.489Z,99.90
2019-05-14T21:59:58.833Z,99.90
2019-05-14T22:02:30.518Z,99.90
2019-05-14T22:05:01.479Z,99.90
2019-05-14T22:07:30.735Z,99.90
2019-05-14T22:10:00.167Z,99.90
2019-05-14T22:12:29.608Z,99.90
2019-05-14T22:14:59.078Z,99.90
2019-05-14T22:17:28.612Z,99.90
2019-05-14T22:19:58.459Z,99.90
2019-05-14T22:22:30.704Z,99.90
2019-05-14T22:24:59.136Z,99.90
2019-05-14T22:27:28.620Z,99.90
2019-05-14T22:29:58.648Z,99.90
2019-05-14T22:32:28.618Z,99.90
2019-05-14T22:34:58.547Z,99.90
2019-05-14T22:37:28.181Z,99.90
2019-05-14T22:39:59.027Z,99.90
2019-05-14T22:42:28.591Z,99.90
2019-05-14T22:44:58.439Z,99.90
2019-05-14T22:47:27.919Z,99.90
2019-05-14T22:49:59.145Z,99.90
2019-05-14T22:52:31.141Z,99.90
2019-05-14T22:54:59.714Z,99.90
2019-05-14T22:57:31.111Z,99.90
2019-05-14T23:00:00.271Z,99.90
2019-05-14T23:02:29.754Z,99.90
2019-05-14T23:05:00.194Z,99.90
2019-05-14T23:07:29.540Z,99.90
2019-05-14T23:09:59.112Z,99.90
2019-05-14T23:12:28.775Z,99.90
2019-05-14T23:14:58.236Z,99.90
2019-05-14T23:17:28.148Z,99.90
2019-05-14T23:19:58.132Z,99.90
2019-05-14T23:22:29.566Z,99.90
2019-05-14T23:24:59.293Z,99.90
2019-05-14T23:27:29.466Z,99.90
2019-05-14T23:29:59.101Z,99.90
2019-05-14T23:32:28.664Z,99.90
2019-05-14T23:34:58.560Z,99.90
2019-05-14T23:37:29.106Z,99.90
2019-05-14T23:40:00.339Z,99.90
2019-05-14T23:42:29.786Z,99.90
2019-05-14T23:44:59.237Z,99.90
2019-05-14T23:47:29.021Z,99.90
2019-05-14T23:49:58.718Z,99.90
2019-05-14T23:52:29.368Z,99.90
2019-05-14T23:54:59.302Z,99.90
2019-05-14T23:57:28.931Z,99.90
2019-05-14T23:59:58.492Z,99.90
